• Join FlightAware (Why Join?)
  • Login
  • US Flag 
08:41AM EDT


 

Airport Tracker/Info


-or-


 

Live Flight TrackerFlight Track Log ✈ N430WC ✈ 06-Jun-2014 ✈ KSBA - KUAO

Flight Track Log - Related Links

Times and Time Zones

All times are in EDT time to prevent confusion due to time zone crossing. See the N430WC flight status page for this flight to view local times or setup timezone preferences in your user account.

Time Position Orientation Groundspeed Altitude Reporting Facility
EDT Latitude Longitude Course Direction KTS MPH feet Rate Location/Type
09:21PM 34.4272 -119.8664 264° West 167 192 900  Level Los Angeles Center
09:21PM 34.4228 -119.9147 264° West 203 234 3,100 3,060 Climbing Los Angeles Center
09:22PM 34.4150 -119.9608 258° West 237 273 5,300 3,060 Climbing Los Angeles Center
09:23PM 34.4081 -120.0478 264° West 252 290 8,600 3,480 Climbing Los Angeles Center
09:24PM 34.4108 -120.1422 272° West 272 313 12,500 3,180 Climbing Los Angeles Center
09:25PM 34.4878 -120.1814 337° Northwest 303 349 15,200 2,460 Climbing Los Angeles Center
09:26PM 34.5972 -120.2019 351° North 339 390 17,600 1,980 Climbing Los Angeles Center
09:27PM 34.7089 -120.2208 352° North 398 458 19,300 1,800 Climbing Los Angeles Center
09:28PM 34.8225 -120.2419 351° North 417 480 21,400 2,220 Climbing Los Angeles Center
09:29PM 34.9622 -120.2675 351° North 426 490 24,000 2,220 Climbing Los Angeles Center
09:30PM 35.0808 -120.2897 351° North 432 497 26,100 1,860 Climbing Los Angeles Center
09:31PM 35.2022 -120.3108 352° North 443 510 27,900 1,680 Climbing Los Angeles Center
09:33PM 35.3258 -120.3347 351° North 448 516 29,700 1,560 Climbing Los Angeles Center
09:34PM 35.4497 -120.3575 351° North 449 517 31,200 1,440 Climbing Los Angeles Center
09:35PM 35.5753 -120.3825 351° North 453 521 32,700 1,620 Climbing Los Angeles Center
09:35PM 35.6753 -120.4011 351° North 455 524 34,000 1,860 Climbing Oakland Center
09:36PM 35.8003 -120.4250 351° North 455 524 35,800 1,740 Climbing Oakland Center
09:37PM 35.9228 -120.4483 351° North 451 519 37,600 1,620 Climbing Oakland Center
09:38PM 36.0433 -120.4706 352° North 443 510 39,200 1,140 Climbing Oakland Center
09:39PM 36.1611 -120.4933 351° North 434 499 40,000 360 Climbing Oakland Center
09:40PM 36.2856 -120.5156 352° North 444 511 40,000  Level Oakland Center
09:41PM 36.4119 -120.5406 351° North 455 524 40,000  Level Oakland Center
09:42PM 36.5633 -120.5700 351° North 458 527 40,000  Level Oakland Center
09:43PM 36.6892 -120.5939 351° North 458 527 40,000  Level Oakland Center
09:44PM 36.8153 -120.6192 351° North 459 528 40,000  Level Oakland Center
09:45PM 36.9286 -120.6403 352° North 457 526 40,000  Level Oakland Center
09:46PM 37.0803 -120.6697 351° North 458 527 40,000  Level Oakland Center
09:47PM 37.2058 -120.6939 351° North 458 527 40,000  Level Oakland Center
09:49PM 37.3333 -120.7200 351° North 458 527 40,000  Level Oakland Center
09:50PM 37.4597 -120.7442 351° North 458 527 40,000  Level Oakland Center
09:51PM 37.5856 -120.7672 352° North 458 527 40,000  Level Oakland Center
09:52PM 37.7119 -120.7919 351° North 459 528 40,000  Level Oakland Center
09:53PM 37.8381 -120.8186 351° North 459 528 40,000  Level Oakland Center
09:54PM 37.9644 -120.8428 351° North 459 528 40,000  Level Oakland Center
09:55PM 38.0914 -120.8678 351° North 460 529 40,000  Level Oakland Center
09:56PM 38.2189 -120.8931 351° North 462 532 40,000  Level Oakland Center
09:57PM 38.3683 -120.9231 351° North 458 527 40,000  Level Oakland Center
09:58PM 38.4928 -120.9469 351° North 458 527 40,000  Level Oakland Center
09:59PM 38.6169 -120.9700 352° North 458 527 40,000  Level Oakland Center
10:00PM 38.7403 -120.9964 351° North 458 527 40,000  Level Oakland Center
10:01PM 38.8633 -121.0219 351° North 456 525 40,000  Level Oakland Center
10:03PM 39.1375 -121.0783 351° North 456 525 40,000  Level Oakland Center
10:04PM 39.2631 -121.1047 351° North 457 526 40,000  Level Oakland Center
10:05PM 39.3892 -121.1294 351° North 457 526 40,000  Level Oakland Center
10:06PM 39.5144 -121.1561 351° North 457 526 40,000  Level Oakland Center
10:07PM 39.6306 -121.1797 351° North 457 526 40,000  Level Oakland Center
10:08PM 39.7811 -121.2106 351° North 458 527 40,000  Level Oakland Center
10:09PM 39.9061 -121.2375 351° North 458 527 40,000  Level Oakland Center
10:10PM 40.0319 -121.2644 351° North 458 527 40,000  Level Oakland Center
10:11PM 40.1578 -121.2886 352° North 459 528 40,000  Level Oakland Center
10:12PM 40.2808 -121.3169 350° North 455 524 40,000  Level Oakland Center
10:13PM 40.4067 -121.3428 351° North 456 525 40,000  Level Oakland Center
10:14PM 40.5292 -121.3697 351° North 450 518 40,000  Level Oakland Center
10:15PM 40.6569 -121.3975 351° North 451 519 40,000  Level Oakland Center
10:16PM 40.7814 -121.4247 351° North 452 520 40,000  Level Oakland Center
10:17PM 40.9256 -121.4569 350° North 453 521 40,000  Level Oakland Center
10:18PM 41.0492 -121.4844 350° North 453 521 40,000  Level Oakland Center
10:19PM 41.1758 -121.5117 351° North 444 511 40,000  Level Oakland Center
10:20PM 41.3000 -121.5394 350° North 454 522 40,000  Level Oakland Center
10:21PM 41.4217 -121.5664 351° North 450 518 40,000  Level Oakland Center
10:22PM 41.5431 -121.5942 350° North 447 514 40,000  Level Oakland Center
10:23PM 41.6647 -121.6194 351° North 446 513 40,000  Level Oakland Center
10:25PM 41.8339 -121.6567 351° North 442 509 40,000  Level Seattle Center
10:26PM 41.9539 -121.6847 350° North 442 509 40,000  Level Seattle Center
10:27PM 42.0733 -121.7089 351° North 443 510 40,000  Level Seattle Center
10:28PM 42.1922 -121.7386 350° North 444 511 40,000  Level Seattle Center
10:29PM 42.3081 -121.7792 345° North 441 507 40,000  Level Seattle Center
10:30PM 42.4283 -121.8167 347° North 441 507 40,000  Level Seattle Center
10:31PM 42.5433 -121.8556 346° North 434 499 40,000  Level Seattle Center
10:32PM 42.6894 -121.8653 357° North 438 504 40,000 -360 Level Seattle Center
10:33PM 42.8106 -121.8708 358° North 437 503 39,300 -1,020 Descending Seattle Center
10:34PM 42.9294 -121.8967 351° North 436 502 38,000 -1,380 Descending Seattle Center
10:35PM 43.0450 -121.9356 346° North 428 493 36,500 -1,680 Descending Seattle Center
10:36PM 43.1611 -121.9686 348° North 427 491 34,600 -1,920 Descending Seattle Center
10:37PM 43.2711 -122.0314 337° Northwest 432 497 32,700 -1,800 Descending Seattle Center
10:38PM 43.3686 -122.1036 332° Northwest 429 494 31,000 -1,800 Descending Seattle Center
10:39PM 43.4753 -122.1853 331° Northwest 438 504 29,100 -2,100 Descending Seattle Center
10:40PM 43.6142 -122.2550 340° North 452 520 26,800 -2,100 Descending Seattle Center
10:41PM 43.7319 -122.2953 346° North 441 507 24,900 -1,920 Descending Seattle Center
10:42PM 43.8478 -122.3297 348° North 431 496 22,900 -1,920 Descending Seattle Center
10:43PM 43.9608 -122.3656 347° North 423 487 21,100 -1,800 Descending Seattle Center
10:44PM 44.0706 -122.4014 347° North 411 473 19,300 -1,740 Descending Seattle Center
10:45PM 44.1781 -122.4358 347° North 404 465 17,600 -1,680 Descending Seattle Center
10:46PM 44.2806 -122.4703 346° North 386 444 15,900 -1,680 Descending Seattle Center
10:47PM 44.3792 -122.5014 347° North 371 427 14,300 -1,500 Descending Seattle Center
10:48PM 44.4669 -122.5317 346° North 329 379 12,900 -1,380 Descending Seattle Center
10:49PM 44.5469 -122.5572 347° North 300 345 11,600 -1,440 Descending Seattle Center
10:50PM 44.6358 -122.5867 347° North 300 345 10,100 -1,380 Descending Seattle Center
10:51PM 44.7108 -122.6111 347° North 286 329 8,900 -1,200 Descending Seattle Center
10:52PM 44.7683 -122.6294 347° North 243 280 8,000 -1,140 Descending Seattle Center
10:52PM 44.7772 -122.6331 344° North 258 297 7,800 -1,020 Descending Seattle Center
10:52PM 44.7969 -122.6422 342° North 235 270 7,500 -1,020 Descending Seattle Center
10:53PM 44.8389 -122.6533 349° North 239 275 6,800 -1,020 Descending Seattle Center
10:53PM 44.8597 -122.6628 342° North 225 259 6,500 -1,020 Descending Seattle Center
10:54PM 44.8972 -122.6742 348° North 224 258 5,800 -1,020 Descending Seattle Center
10:54PM 44.9117 -122.6844 333° Northwest 218 251 5,600 -420 Descending Seattle Center
10:55PM 44.9647 -122.6958 351° North 220 253 5,400 -240 Descending Seattle Center
10:57PM 45.1311 -122.7191 344° North  Level FlightAware Approximate
11:04PM 45.2333 -122.7667 341° North  Level FlightAware Approximate
11:05PM 45.2471 -122.7701 341° North  Level Estimated
11:06PM 45.2471 -122.7701 341° North  Level Estimated
11:07PM 45.2471 -122.7701 341° North  Level Estimated
11:08PM 45.2471 -122.7701 341° North  Level Estimated
11:09PM 45.2471 -122.7701 341° North  Level Estimated
11:10PM 45.2471 -122.7701 341° North  Level Estimated
11:11PM 45.2471 -122.7701 341° North  Level Estimated
11:12PM 45.2471 -122.7701 341° North  Level Estimated
11:13PM 45.2471 -122.7701 341° North  Level Estimated
11:14PM 45.2471 -122.7701 341° North  Level Estimated
11:15PM 45.2471 -122.7701 341° North  Level Estimated
11:16PM 45.2471 -122.7701 341° North  Level Estimated